sensor_id;sensor_type;location;lat;lon;timestamp;pressure;altitude;pressure_sealevel;temperature;humidity
36304;BME280;22335;49.800;8.596;2023-05-23T00:04:26;100300.50;;;26.46;45.52
36304;BME280;22335;49.800;8.596;2023-05-23T00:11:11;100306.13;;;26.46;45.48
36304;BME280;22335;49.800;8.596;2023-05-23T00:17:56;100300.09;;;26.37;45.85
36304;BME280;22335;49.800;8.596;2023-05-23T00:24:40;100301.25;;;26.29;45.96
36304;BME280;22335;49.800;8.596;2023-05-23T00:31:23;100308.84;;;26.17;45.96
36304;BME280;22335;49.800;8.596;2023-05-23T00:38:08;100307.63;;;26.15;46.29
36304;BME280;22335;49.800;8.596;2023-05-23T00:44:53;100311.22;;;26.12;45.95
36304;BME280;22335;49.800;8.596;2023-05-23T00:51:37;100307.59;;;26.08;46.20
36304;BME280;22335;49.800;8.596;2023-05-23T00:58:24;100310.41;;;26.08;46.04
36304;BME280;22335;49.800;8.596;2023-05-23T01:05:08;100322.00;;;26.06;46.11
36304;BME280;22335;49.800;8.596;2023-05-23T01:12:03;100325.94;;;25.94;46.15
36304;BME280;22335;49.800;8.596;2023-05-23T01:18:59;100296.50;;;25.56;46.55
36304;BME280;22335;49.800;8.596;2023-05-23T01:26:02;100283.19;;;25.42;46.34
36304;BME280;22335;49.800;8.596;2023-05-23T01:32:57;100288.38;;;25.37;46.10
36304;BME280;22335;49.800;8.596;2023-05-23T01:39:42;100338.91;;;25.58;46.46
36304;BME280;22335;49.800;8.596;2023-05-23T01:46:26;100339.13;;;25.35;47.19
36304;BME280;22335;49.800;8.596;2023-05-23T01:53:13;100344.66;;;25.24;46.75
36304;BME280;22335;49.800;8.596;2023-05-23T01:59:57;100346.69;;;25.27;46.70
36304;BME280;22335;49.800;8.596;2023-05-23T02:06:41;100338.25;;;25.24;47.23
36304;BME280;22335;49.800;8.596;2023-05-23T02:13:28;100339.00;;;25.21;47.05
36304;BME280;22335;49.800;8.596;2023-05-23T02:20:11;100348.56;;;25.13;47.35
36304;BME280;22335;49.800;8.596;2023-05-23T02:26:55;100352.63;;;25.19;46.84
36304;BME280;22335;49.800;8.596;2023-05-23T02:33:40;100358.94;;;25.12;46.90
36304;BME280;22335;49.800;8.596;2023-05-23T02:40:24;100384.44;;;25.03;47.05
36304;BME280;22335;49.800;8.596;2023-05-23T03:02:13;100397.91;;;24.57;48.10
36304;BME280;22335;49.800;8.596;2023-05-23T03:08:56;100409.91;;;24.57;47.95
36304;BME280;22335;49.800;8.596;2023-05-23T03:15:40;100378.38;;;24.30;47.94
36304;BME280;22335;49.800;8.596;2023-05-23T03:22:25;100408.13;;;24.42;48.11
36304;BME280;22335;49.800;8.596;2023-05-23T03:29:08;100418.75;;;24.33;47.94
36304;BME280;22335;49.800;8.596;2023-05-23T03:35:52;100420.50;;;24.14;47.96
36304;BME280;22335;49.800;8.596;2023-05-23T03:42:39;100416.13;;;24.17;47.51
36304;BME280;22335;49.800;8.596;2023-05-23T03:49:23;100420.50;;;24.14;47.08
36304;BME280;22335;49.800;8.596;2023-05-23T03:56:07;100433.44;;;24.00;47.67
36304;BME280;22335;49.800;8.596;2023-05-23T04:02:52;100434.91;;;23.90;48.17
36304;BME280;22335;49.800;8.596;2023-05-23T04:09:37;100440.81;;;23.85;48.22
36304;BME280;22335;49.800;8.596;2023-05-23T04:16:23;100459.44;;;23.77;48.16
36304;BME280;22335;49.800;8.596;2023-05-23T04:23:08;100450.22;;;23.73;47.71
36304;BME280;22335;49.800;8.596;2023-05-23T04:29:55;100473.41;;;23.54;47.86
36304;BME280;22335;49.800;8.596;2023-05-23T04:36:41;100476.50;;;23.26;47.81
36304;BME280;22335;49.800;8.596;2023-05-23T04:43:27;100476.44;;;23.03;48.03
36304;BME280;22335;49.800;8.596;2023-05-23T04:50:28;100494.63;;;22.77;48.13
36304;BME280;22335;49.800;8.596;2023-05-23T04:57:13;100502.91;;;22.74;47.94
36304;BME280;22335;49.800;8.596;2023-05-23T05:03:59;100504.59;;;22.78;47.86
36304;BME280;22335;49.800;8.596;2023-05-23T05:10:43;100519.28;;;22.75;47.70
36304;BME280;22335;49.800;8.596;2023-05-23T05:17:28;100521.72;;;22.77;47.80
36304;BME280;22335;49.800;8.596;2023-05-23T05:24:21;100519.88;;;22.85;47.58
36304;BME280;22335;49.800;8.596;2023-05-23T05:31:05;100532.13;;;22.80;47.80
36304;BME280;22335;49.800;8.596;2023-05-23T05:37:50;100534.00;;;22.56;47.86
36304;BME280;22335;49.800;8.596;2023-05-23T05:44:35;100529.69;;;22.24;48.17
36304;BME280;22335;49.800;8.596;2023-05-23T05:51:19;100486.03;;;21.80;47.93
36304;BME280;22335;49.800;8.596;2023-05-23T05:58:02;100561.22;;;22.28;47.89
36304;BME280;22335;49.800;8.596;2023-05-23T06:05:02;100399.50;;;21.38;47.49
36304;BME280;22335;49.800;8.596;2023-05-23T06:11:48;100575.75;;;22.53;47.33
36304;BME280;22335;49.800;8.596;2023-05-23T06:18:32;100543.56;;;22.08;47.37
36304;BME280;22335;49.800;8.596;2023-05-23T06:25:17;100584.56;;;22.23;47.55
36304;BME280;22335;49.800;8.596;2023-05-23T06:32:01;100590.13;;;22.07;47.43
36304;BME280;22335;49.800;8.596;2023-05-23T06:38:46;100589.59;;;22.02;47.67
36304;BME280;22335;49.800;8.596;2023-05-23T06:45:31;100580.97;;;22.07;47.68
36304;BME280;22335;49.800;8.596;2023-05-23T06:52:15;100596.81;;;22.19;47.17
36304;BME280;22335;49.800;8.596;2023-05-23T06:58:59;100594.91;;;22.23;46.83
36304;BME280;22335;49.800;8.596;2023-05-23T07:05:44;100559.22;;;21.97;46.94
36304;BME280;22335;49.800;8.596;2023-05-23T07:12:29;100612.28;;;22.16;46.64
36304;BME280;22335;49.800;8.596;2023-05-23T07:19:14;100592.38;;;22.02;46.77
36304;BME280;22335;49.800;8.596;2023-05-23T07:26:03;100608.47;;;22.08;46.75
36304;BME280;22335;49.800;8.596;2023-05-23T07:32:57;100606.75;;;22.04;46.56
36304;BME280;22335;49.800;8.596;2023-05-23T07:39:41;100617.94;;;22.20;46.49
36304;BME280;22335;49.800;8.596;2023-05-23T07:46:26;100602.00;;;22.20;46.41
36304;BME280;22335;49.800;8.596;2023-05-23T07:53:10;100619.56;;;22.21;46.50
36304;BME280;22335;49.800;8.596;2023-05-23T07:59:54;100620.63;;;22.16;46.42
36304;BME280;22335;49.800;8.596;2023-05-23T08:06:41;100615.56;;;22.53;46.05
36304;BME280;22335;49.800;8.596;2023-05-23T08:13:40;100611.28;;;22.75;45.76
36304;BME280;22335;49.800;8.596;2023-05-23T08:36:58;100626.16;;;23.34;44.91
36304;BME280;22335;49.800;8.596;2023-05-23T08:43:43;100626.94;;;23.35;45.53
36304;BME280;22335;49.800;8.596;2023-05-23T08:50:36;100626.66;;;23.40;45.46
36304;BME280;22335;49.800;8.596;2023-05-23T08:57:22;100636.06;;;23.32;45.60
36304;BME280;22335;49.800;8.596;2023-05-23T09:04:11;100587.75;;;23.08;45.14
36304;BME280;22335;49.800;8.596;2023-05-23T09:11:25;100617.84;;;23.38;45.00
36304;BME280;22335;49.800;8.596;2023-05-23T09:18:11;100594.72;;;23.18;44.84
36304;BME280;22335;49.800;8.596;2023-05-23T09:24:55;100641.41;;;23.60;44.94
36304;BME280;22335;49.800;8.596;2023-05-23T09:31:41;100640.75;;;23.47;44.99
36304;BME280;22335;49.800;8.596;2023-05-23T09:38:27;100644.72;;;23.46;45.05
36304;BME280;22335;49.800;8.596;2023-05-23T09:45:11;100637.53;;;23.45;44.89
36304;BME280;22335;49.800;8.596;2023-05-23T09:51:57;100625.78;;;23.55;44.86
36304;BME280;22335;49.800;8.596;2023-05-23T09:58:43;100629.75;;;23.74;44.41
36304;BME280;22335;49.800;8.596;2023-05-23T10:05:35;100635.53;;;23.84;44.22
36304;BME280;22335;49.800;8.596;2023-05-23T10:12:46;100651.06;;;23.82;44.19
36304;BME280;22335;49.800;8.596;2023-05-23T10:19:36;100643.91;;;23.65;44.30
36304;BME280;22335;49.800;8.596;2023-05-23T10:26:23;100666.72;;;23.47;44.73
36304;BME280;22335;49.800;8.596;2023-05-23T10:33:10;100661.34;;;23.39;44.63
36304;BME280;22335;49.800;8.596;2023-05-23T10:39:58;100653.19;;;23.50;44.95
36304;BME280;22335;49.800;8.596;2023-05-23T10:46:50;100661.47;;;23.65;44.60
36304;BME280;22335;49.800;8.596;2023-05-23T10:53:38;100624.44;;;23.68;44.40
36304;BME280;22335;49.800;8.596;2023-05-23T11:00:23;100655.41;;;24.02;43.54
36304;BME280;22335;49.800;8.596;2023-05-23T11:07:27;100645.97;;;23.87;43.66
36304;BME280;22335;49.800;8.596;2023-05-23T11:14:13;100643.66;;;23.70;43.49
36304;BME280;22335;49.800;8.596;2023-05-23T11:20:57;100658.09;;;23.95;43.81
36304;BME280;22335;49.800;8.596;2023-05-23T11:27:45;100663.28;;;24.16;43.35
36304;BME280;22335;49.800;8.596;2023-05-23T11:34:31;100662.88;;;24.17;43.69
36304;BME280;22335;49.800;8.596;2023-05-23T11:41:15;100673.75;;;24.23;43.48
36304;BME280;22335;49.800;8.596;2023-05-23T11:48:03;100518.63;;;23.21;43.81
36304;BME280;22335;49.800;8.596;2023-05-23T11:54:49;100660.19;;;24.25;43.42
36304;BME280;22335;49.800;8.596;2023-05-23T12:01:35;100648.09;;;24.40;43.03
36304;BME280;22335;49.800;8.596;2023-05-23T12:08:19;100654.00;;;24.35;43.40
36304;BME280;22335;49.800;8.596;2023-05-23T12:15:05;100660.69;;;24.30;43.45
36304;BME280;22335;49.800;8.596;2023-05-23T12:21:50;100646.06;;;24.14;43.52
36304;BME280;22335;49.800;8.596;2023-05-23T12:28:34;100677.97;;;24.36;43.03
36304;BME280;22335;49.800;8.596;2023-05-23T12:35:20;100667.09;;;24.31;43.22
36304;BME280;22335;49.800;8.596;2023-05-23T12:42:08;100672.53;;;24.43;43.43
36304;BME280;22335;49.800;8.596;2023-05-23T12:48:52;100668.13;;;24.42;43.21
36304;BME280;22335;49.800;8.596;2023-05-23T12:55:37;100678.16;;;24.24;43.68
36304;BME280;22335;49.800;8.596;2023-05-23T13:02:21;100684.25;;;24.06;44.03
36304;BME280;22335;49.800;8.596;2023-05-23T13:09:04;100670.16;;;24.22;43.96
36304;BME280;22335;49.800;8.596;2023-05-23T13:15:49;100659.94;;;24.53;43.51
36304;BME280;22335;49.800;8.596;2023-05-23T13:22:33;100664.38;;;24.57;43.10
36304;BME280;22335;49.800;8.596;2023-05-23T13:29:16;100671.28;;;24.64;42.68
36304;BME280;22335;49.800;8.596;2023-05-23T13:36:01;100669.88;;;24.50;42.55
36304;BME280;22335;49.800;8.596;2023-05-23T13:42:46;100670.59;;;24.24;42.57
36304;BME280;22335;49.800;8.596;2023-05-23T13:49:31;100683.75;;;24.24;42.38
36304;BME280;22335;49.800;8.596;2023-05-23T13:56:15;100670.47;;;24.17;41.99
36304;BME280;22335;49.800;8.596;2023-05-23T14:03:00;100670.81;;;24.15;41.71
36304;BME280;22335;49.800;8.596;2023-05-23T14:09:44;100660.38;;;24.12;42.08
36304;BME280;22335;49.800;8.596;2023-05-23T14:16:29;100592.81;;;23.84;42.13
36304;BME280;22335;49.800;8.596;2023-05-23T14:23:13;100668.78;;;24.12;41.16
36304;BME280;22335;49.800;8.596;2023-05-23T14:29:57;100677.53;;;24.11;41.44
36304;BME280;22335;49.800;8.596;2023-05-23T14:36:42;100680.44;;;23.95;41.67
36304;BME280;22335;49.800;8.596;2023-05-23T14:43:25;100694.94;;;23.81;41.53
36304;BME280;22335;49.800;8.596;2023-05-23T14:50:09;100698.72;;;23.69;41.46
36304;BME280;22335;49.800;8.596;2023-05-23T14:56:54;100684.00;;;23.73;41.75
36304;BME280;22335;49.800;8.596;2023-05-23T15:03:38;100702.88;;;23.79;41.61
36304;BME280;22335;49.800;8.596;2023-05-23T15:10:21;100707.09;;;23.69;42.04
36304;BME280;22335;49.800;8.596;2023-05-23T15:17:06;100696.25;;;23.48;42.57
36304;BME280;22335;49.800;8.596;2023-05-23T15:23:50;100712.66;;;23.34;42.89
36304;BME280;22335;49.800;8.596;2023-05-23T15:30:33;100722.81;;;23.23;43.09
36304;BME280;22335;49.800;8.596;2023-05-23T15:37:18;100706.78;;;23.20;42.66
36304;BME280;22335;49.800;8.596;2023-05-23T15:44:02;100691.44;;;22.94;42.33
36304;BME280;22335;49.800;8.596;2023-05-23T15:50:46;100719.44;;;23.33;42.17
36304;BME280;22335;49.800;8.596;2023-05-23T15:57:30;100714.84;;;23.25;42.03
36304;BME280;22335;49.800;8.596;2023-05-23T16:04:14;100720.16;;;23.30;42.04
36304;BME280;22335;49.800;8.596;2023-05-23T16:10:57;100719.97;;;23.39;42.19
36304;BME280;22335;49.800;8.596;2023-05-23T16:17:42;100708.59;;;23.47;41.38
36304;BME280;22335;49.800;8.596;2023-05-23T16:24:26;100722.25;;;23.53;41.39
36304;BME280;22335;49.800;8.596;2023-05-23T16:31:12;100716.25;;;23.51;40.52
36304;BME280;22335;49.800;8.596;2023-05-23T16:37:58;100717.53;;;23.57;40.62
36304;BME280;22335;49.800;8.596;2023-05-23T16:44:41;100686.03;;;23.37;40.38
36304;BME280;22335;49.800;8.596;2023-05-23T16:51:25;100715.13;;;23.55;40.05
36304;BME280;22335;49.800;8.596;2023-05-23T16:58:10;100708.66;;;23.51;40.26
36304;BME280;22335;49.800;8.596;2023-05-23T17:04:53;100724.97;;;23.49;40.11
36304;BME280;22335;49.800;8.596;2023-05-23T17:11:36;100673.94;;;23.13;40.11
36304;BME280;22335;49.800;8.596;2023-05-23T17:18:21;100724.63;;;23.51;40.07
36304;BME280;22335;49.800;8.596;2023-05-23T17:25:06;100734.22;;;23.53;40.00
36304;BME280;22335;49.800;8.596;2023-05-23T17:31:50;100736.94;;;23.50;39.88
36304;BME280;22335;49.800;8.596;2023-05-23T17:38:35;100725.38;;;23.32;39.22
36304;BME280;22335;49.800;8.596;2023-05-23T17:45:18;100725.34;;;23.12;39.09
36304;BME280;22335;49.800;8.596;2023-05-23T17:52:02;100730.50;;;22.94;39.04
36304;BME280;22335;49.800;8.596;2023-05-23T17:58:48;100762.25;;;22.90;38.85
36304;BME280;22335;49.800;8.596;2023-05-23T18:05:32;100717.81;;;22.33;38.95
36304;BME280;22335;49.800;8.596;2023-05-23T18:12:16;100741.53;;;22.27;39.02
36304;BME280;22335;49.800;8.596;2023-05-23T18:19:00;100775.63;;;22.37;38.72
36304;BME280;22335;49.800;8.596;2023-05-23T18:25:44;100774.53;;;22.13;39.24
36304;BME280;22335;49.800;8.596;2023-05-23T18:32:27;100800.16;;;21.91;39.32
36304;BME280;22335;49.800;8.596;2023-05-23T18:39:14;100798.63;;;21.65;39.07
36304;BME280;22335;49.800;8.596;2023-05-23T18:45:58;100819.75;;;21.41;39.05
36304;BME280;22335;49.800;8.596;2023-05-23T18:52:42;100818.81;;;21.25;38.93
36304;BME280;22335;49.800;8.596;2023-05-23T18:59:26;100819.19;;;21.36;38.10
36304;BME280;22335;49.800;8.596;2023-05-23T19:06:10;100826.56;;;21.32;38.09
36304;BME280;22335;49.800;8.596;2023-05-23T19:12:54;100853.03;;;21.38;37.71
36304;BME280;22335;49.800;8.596;2023-05-23T19:19:38;100852.69;;;21.39;37.58
36304;BME280;22335;49.800;8.596;2023-05-23T19:26:22;100870.06;;;21.61;37.67
36304;BME280;22335;49.800;8.596;2023-05-23T19:33:05;100868.56;;;21.63;37.68
36304;BME280;22335;49.800;8.596;2023-05-23T19:39:50;100882.25;;;21.69;37.68
36304;BME280;22335;49.800;8.596;2023-05-23T19:46:34;100880.59;;;21.68;38.01
36304;BME280;22335;49.800;8.596;2023-05-23T19:53:17;100889.53;;;21.85;37.75
36304;BME280;22335;49.800;8.596;2023-05-23T20:00:06;100862.06;;;21.72;37.45
36304;BME280;22335;49.800;8.596;2023-05-23T20:06:51;100903.91;;;22.00;37.49
36304;BME280;22335;49.800;8.596;2023-05-23T20:13:35;100911.28;;;22.20;37.46
36304;BME280;22335;49.800;8.596;2023-05-23T20:20:20;100903.81;;;22.37;37.32
36304;BME280;22335;49.800;8.596;2023-05-23T20:27:05;100901.94;;;22.41;37.15
36304;BME280;22335;49.800;8.596;2023-05-23T20:33:49;100913.75;;;22.50;37.19
36304;BME280;22335;49.800;8.596;2023-05-23T20:40:34;100914.47;;;22.47;37.21
36304;BME280;22335;49.800;8.596;2023-05-23T20:47:17;100917.34;;;22.50;37.13
36304;BME280;22335;49.800;8.596;2023-05-23T20:54:01;100920.13;;;22.50;36.98
36304;BME280;22335;49.800;8.596;2023-05-23T21:00:47;100912.38;;;22.44;36.93
36304;BME280;22335;49.800;8.596;2023-05-23T21:07:31;100861.03;;;22.04;37.00
36304;BME280;22335;49.800;8.596;2023-05-23T21:14:14;100922.06;;;22.34;37.05
36304;BME280;22335;49.800;8.596;2023-05-23T21:20:59;100913.50;;;22.27;37.14
36304;BME280;22335;49.800;8.596;2023-05-23T21:27:42;100940.53;;;22.26;36.99
36304;BME280;22335;49.800;8.596;2023-05-23T21:34:26;100943.78;;;22.28;37.07
36304;BME280;22335;49.800;8.596;2023-05-23T21:41:11;100904.00;;;22.03;37.06
36304;BME280;22335;49.800;8.596;2023-05-23T21:47:55;100949.06;;;22.18;37.11
36304;BME280;22335;49.800;8.596;2023-05-23T21:54:38;100959.72;;;22.03;36.92
36304;BME280;22335;49.800;8.596;2023-05-23T22:01:23;100961.81;;;21.70;36.97
36304;BME280;22335;49.800;8.596;2023-05-23T22:08:06;100965.84;;;21.35;36.99
36304;BME280;22335;49.800;8.596;2023-05-23T22:14:50;100974.72;;;21.29;37.06
36304;BME280;22335;49.800;8.596;2023-05-23T22:21:35;100965.97;;;21.06;37.06
36304;BME280;22335;49.800;8.596;2023-05-23T22:28:18;100975.47;;;21.05;37.26
36304;BME280;22335;49.800;8.596;2023-05-23T22:35:02;100980.13;;;20.80;37.39
36304;BME280;22335;49.800;8.596;2023-05-23T22:41:47;100967.53;;;20.61;37.54
36304;BME280;22335;49.800;8.596;2023-05-23T22:48:31;100976.91;;;20.57;37.55
36304;BME280;22335;49.800;8.596;2023-05-23T22:55:14;100969.41;;;20.48;37.66
36304;BME280;22335;49.800;8.596;2023-05-23T23:01:59;100965.34;;;20.25;37.59
36304;BME280;22335;49.800;8.596;2023-05-23T23:08:43;100978.41;;;20.24;37.82
36304;BME280;22335;49.800;8.596;2023-05-23T23:15:28;100984.41;;;20.35;37.69
36304;BME280;22335;49.800;8.596;2023-05-23T23:22:15;100987.88;;;20.32;37.79
36304;BME280;22335;49.800;8.596;2023-05-23T23:28:59;100993.88;;;20.34;37.67
36304;BME280;22335;49.800;8.596;2023-05-23T23:35:43;100990.59;;;20.41;37.82
36304;BME280;22335;49.800;8.596;2023-05-23T23:42:30;100971.81;;;20.38;37.78
36304;BME280;22335;49.800;8.596;2023-05-23T23:49:14;100976.34;;;20.42;37.79
36304;BME280;22335;49.800;8.596;2023-05-23T23:55:57;100983.50;;;20.43;37.81
